Terminal Aerodrome Forecast
Issued by NWS Detroit/Pontiac, MI

Home | Current Version | Previous Version | Text Only | Print | Product List | Glossary On
Versions: 1 2 3 4 5 6 7 8 9 10 11 12 13 14 15 16 17 18 19 20 21 22 23 24
000
FTUS43 KDTX 172300
TAFDTW
TAF
KDTW 172321Z 1800/1906 30004KT P6SM FEW060
     FM181000 36005KT P6SM SCT010 SCT050
     FM181200 01006KT P6SM BKN018
     FM181600 03008KT P6SM BKN035
     FM182200 02005KT P6SM SCT040=

USA.gov is the U.S. government's official web portal to all federal, state and local government web resources and services.